Portada
METAR-TAF:

METAR-TAF

Aeroports :

Cabo San Lucas, Mèxic

latitud: 22-56-51N, longitud: 109-56-13W, altitud: 210 m

Observació

L'informe es va fer fa 5 hores i 42 minuts, a les 04:50 UTC
Vent calma
Temperatura 19°C
Humitat 78%
Pressió 1017 hPa
Visibilitat: 11.3 km
Cel clar

METAR: MMSL 180450Z 00000KT 7SM SKC 19/15 A3002

Hora: 03:32 (10:32 UTC)

Pronòstic

L'informe es va fer fa 6 hores i 28 minuts, a les 04:04 UTC
Pronòstic vàlid del 18 a les 06 UTC al 19 a les 06 UTC
Vent kt del Nord
Visibilitat: 10 km
Cel clar
A partir de les 18 a les 1800 UTC
Vent 12 kt del Oest/Sud-Oest
Visibilitat: 10 km
Núvols disperses a una alçada de 12000 ft
Cel ennuvolat a una alçada de 25000 ft
A partir de les 19 a les 0500 UTC
Vent kt del Nord
Visibilitat: 10 km
Cel clar

TAF: MMSL 180404Z 1806/1906 00000KT P6SM SKC FM181800 24012KT P6SM SCT120 BKN250 FM190500 00000KT P6SM SKC

Observacions i pronòstics meteorològics de més de 4000 aeroports (METAR i TAF).

Les estacions disponibles són els punts grocs i vermells al mapa.

Posi el ratolí al punt desitjat per veure el nom de l'estació.

Feu clic per veure les observacions i els pronòstics meteorològics.

Per canviar el mapa: feu clic els botons verds amb una creu de color negre per apropar; al botó verd amb un guió per allunyar la imatge; o en les fletxes verdes per a mapes adjacents.


METAR-TAF: